Time;durP1;ratioP1;P1;durP2;ratioP2;P2;SDS_P1;SDS_P2;PMS_P1;PMS_P2;Temp;Humidity;BMP_temperature;BMP_pressure;BME280_temperature;BME280_humidity;BME280_pressure;Samples;Min_cycle;Max_cycle;Signal;HPM_P1;HPM_P2
2023/10/26 04:32:07;;;;;;;;;4.50;3.00;;;;;23.21;48.86;99036.88;5036949;28;45469;-75
2023/10/26 04:34:33;;;;;;;;;3.00;3.00;;;;;23.31;48.93;99042.03;5016395;28;45979;-74
2023/10/26 04:36:58;;;;;;;;;3.00;3.00;;;;;23.25;49.11;99029.97;5016787;28;48043;-74
2023/10/26 04:39:24;;;;;;;;;3.00;3.00;;;;;23.29;49.60;99039.50;5034854;28;45257;-76
2023/10/26 04:41:50;;;;;;;;;3.75;3.75;;;;;23.38;49.08;99040.22;5034587;28;45599;-75
2023/10/26 04:44:17;;;;;;;;;4.25;4.25;;;;;23.39;49.18;99039.19;5009838;28;47330;-73
2023/10/26 04:46:42;;;;;;;;;5.00;4.00;;;;;23.32;49.26;99030.03;5016122;28;47143;-75
2023/10/26 04:49:07;;;;;;;;;4.00;4.00;;;;;23.25;49.23;99029.13;5016371;28;45244;-76
2023/10/26 04:51:33;;;;;;;;;3.50;3.50;;;;;23.26;49.59;99028.09;5016902;28;45600;-74
2023/10/26 04:53:58;;;;;;;;;5.00;3.75;;;;;23.12;49.97;99015.31;5016470;28;46052;-74
2023/10/26 04:56:24;;;;;;;;;4.00;4.00;;;;;23.03;49.67;99025.53;5016470;28;48257;-75
2023/10/26 04:58:49;;;;;;;;;3.25;3.25;;;;;23.08;49.96;99025.78;5016610;28;45318;-73
2023/10/26 05:01:14;;;;;;;;;2.75;2.75;;;;;23.26;49.97;99025.34;5016305;28;45749;-74
2023/10/26 05:03:40;;;;;;;;;4.00;4.00;;;;;23.36;49.72;99014.97;5016330;28;45380;-77
2023/10/26 05:06:06;;;;;;;;;4.75;4.75;;;;;23.40;49.46;99002.56;5033703;28;45325;-75
2023/10/26 05:08:31;;;;;;;;;3.00;3.00;;;;;23.34;49.40;99004.22;5034452;28;45502;-75
2023/10/26 05:10:57;;;;;;;;;2.00;2.00;;;;;23.19;50.25;99008.03;5016317;28;45331;-73
2023/10/26 05:13:23;;;;;;;;;4.00;3.00;;;;;23.13;50.26;99003.34;5016241;28;47056;-75
2023/10/26 05:15:49;;;;;;;;;3.00;2.75;;;;;23.20;50.42;98999.66;5015727;28;47408;-74
2023/10/26 05:18:14;;;;;;;;;3.00;3.00;;;;;23.28;50.01;98991.31;5016015;28;45436;-74
2023/10/26 05:20:39;;;;;;;;;2.00;2.00;;;;;23.29;49.90;98973.03;5016355;28;45785;-76
2023/10/26 05:23:06;;;;;;;;;4.00;4.00;;;;;23.32;50.50;98976.19;5034230;28;45343;-73
2023/10/26 05:25:32;;;;;;;;;4.00;4.00;;;;;23.47;50.11;98980.78;5015821;28;46128;-73
2023/10/26 05:27:59;;;;;;;;;1.75;1.75;;;;;23.40;50.22;98978.81;5033479;28;45321;-75
2023/10/26 05:30:25;;;;;;;;;2.75;2.75;;;;;23.47;50.51;98994.47;5033020;28;45518;-74
2023/10/26 05:32:50;;;;;;;;;3.00;3.00;;;;;23.46;50.34;98979.09;4994422;28;45361;-76
2023/10/26 05:35:18;;;;;;;;;2.75;2.75;;;;;23.61;50.17;98974.41;5012391;28;46298;-75
2023/10/26 05:37:43;;;;;;;;;2.75;2.75;;;;;23.59;50.18;98977.34;4995604;28;45459;-74
2023/10/26 05:40:09;;;;;;;;;4.50;4.50;;;;;23.44;50.56;98981.16;5012434;28;45937;-75
2023/10/26 05:42:35;;;;;;;;;4.00;4.00;;;;;23.42;51.01;98978.63;5013298;28;45434;-73
2023/10/26 05:45:00;;;;;;;;;2.00;1.50;;;;;23.54;50.70;98978.97;5012810;28;45384;-78
2023/10/26 05:47:26;;;;;;;;;2.00;2.00;;;;;23.39;51.34;98973.56;5014674;28;45359;-73
2023/10/26 05:49:51;;;;;;;;;1.50;1.50;;;;;23.39;51.84;98992.69;5013428;28;45348;-71
2023/10/26 05:52:17;;;;;;;;;3.00;1.50;;;;;23.52;52.07;98987.38;5012581;28;46600;-73
2023/10/26 05:54:42;;;;;;;;;1.00;1.00;;;;;23.61;51.83;98991.69;4996025;28;48014;-73
2023/10/26 05:57:07;;;;;;;;;1.00;1.00;;;;;23.54;52.15;98992.66;5013044;28;47037;-73
2023/10/26 05:59:33;;;;;;;;;0.50;0.50;;;;;23.56;52.22;98991.41;4995939;28;45341;-74
2023/10/26 06:01:58;;;;;;;;;0.75;0.75;;;;;23.69;51.77;98993.44;4995457;28;45392;-74
2023/10/26 06:04:24;;;;;;;;;1.00;1.00;;;;;23.37;53.06;99000.25;4995911;28;45326;-74
2023/10/26 06:06:50;;;;;;;;;0.00;0.00;;;;;23.57;52.11;98989.50;5013827;28;45388;-73
2023/10/26 06:09:15;;;;;;;;;0.00;0.00;;;;;23.77;51.81;98991.41;5012688;28;45332;-73
2023/10/26 06:11:41;;;;;;;;;0.75;0.75;;;;;23.77;51.70;99016.03;4996075;28;47359;-75
2023/10/26 06:14:06;;;;;;;;;0.00;0.00;;;;;23.56;52.15;99026.16;5012272;28;47216;-74
2023/10/26 06:16:32;;;;;;;;;0.00;0.00;;;;;23.74;51.31;99046.50;5013518;28;45401;-73
2023/10/26 06:18:57;;;;;;;;;1.00;1.00;;;;;23.66;50.18;99049.38;4998723;28;45618;-73
2023/10/26 06:21:22;;;;;;;;;0.00;0.00;;;;;23.48;49.31;99024.31;5016369;28;45291;-74
2023/10/26 06:23:48;;;;;;;;;1.00;0.00;;;;;23.53;48.88;99032.00;5016875;28;45245;-74
2023/10/26 06:26:13;;;;;;;;;0.00;0.00;;;;;23.62;49.20;99045.34;4999148;28;45191;-74
2023/10/26 06:28:39;;;;;;;;;0.00;0.00;;;;;23.52;48.65;99047.56;4999128;28;45565;-74
2023/10/26 06:31:12;;;;;;;;;3.50;0.00;;;;;23.46;48.40;99037.38;5020019;28;47103;-74
2023/10/26 06:33:38;;;;;;;;;3.00;1.00;;;;;23.50;48.33;99037.84;5035065;28;47199;-73
2023/10/26 06:36:04;;;;;;;;;1.50;0.25;;;;;23.48;47.43;99029.78;5036772;28;45245;-74
2023/10/26 06:38:29;;;;;;;;;3.00;0.00;;;;;23.53;48.34;99054.72;5018533;28;45384;-74
2023/10/26 06:40:55;;;;;;;;;3.00;1.25;;;;;23.55;47.62;99035.38;5018303;28;45175;-74
2023/10/26 06:43:22;;;;;;;;;1.00;1.00;;;;;23.61;48.16;99048.28;5018724;28;47060;-75
2023/10/26 06:45:48;;;;;;;;;3.50;2.00;;;;;23.57;47.52;99044.22;5018245;28;45472;-73
2023/10/26 06:48:13;;;;;;;;;1.00;1.00;;;;;23.60;47.32;99050.16;5015220;28;45835;-74
2023/10/26 06:50:38;;;;;;;;;4.25;1.00;;;;;23.58;47.27;99057.72;5018345;28;45873;-74
2023/10/26 06:53:04;;;;;;;;;0.25;0.00;;;;;23.59;47.07;99072.25;5018740;28;48003;-73
2023/10/26 06:55:32;;;;;;;;;1.25;1.25;;;;;23.55;47.32;99081.91;5019344;28;45261;-73
2023/10/26 06:57:57;;;;;;;;;1.00;1.00;;;;;23.47;47.74;99079.25;5018434;28;45397;-73
2023/10/26 07:00:23;;;;;;;;;3.00;2.00;;;;;23.52;47.43;99098.69;5018085;28;46891;-73
2023/10/26 07:02:48;;;;;;;;;4.00;1.50;;;;;23.51;47.55;99086.91;5018354;28;46924;-75
2023/10/26 07:05:14;;;;;;;;;5.00;2.00;;;;;23.67;47.29;99091.28;5018219;28;45261;-74
2023/10/26 07:07:39;;;;;;;;;1.00;1.00;;;;;23.49;47.38;99086.22;5018764;28;45332;-75
2023/10/26 07:10:05;;;;;;;;;2.50;1.00;;;;;23.61;46.75;99101.13;5014976;28;47498;-72
2023/10/26 07:12:30;;;;;;;;;1.00;1.00;;;;;23.54;46.80;99083.78;5016218;28;47978;-74
2023/10/26 07:14:57;;;;;;;;;2.00;2.00;;;;;23.45;47.14;99112.25;5034219;28;45330;-74
2023/10/26 07:17:24;;;;;;;;;4.25;2.25;;;;;23.50;46.87;99109.81;5036793;28;45435;-73
2023/10/26 07:19:50;;;;;;;;;3.50;1.25;;;;;23.24;46.94;99113.03;5035705;28;45576;-74
2023/10/26 07:22:16;;;;;;;;;2.75;1.75;;;;;23.04;47.48;99119.31;5017617;28;47995;-74
2023/10/26 07:24:41;;;;;;;;;2.00;2.00;;;;;23.19;47.74;99125.59;5017904;28;45438;-74
2023/10/26 07:27:06;;;;;;;;;4.00;3.00;;;;;23.12;47.26;99111.00;5017972;28;45914;-75
2023/10/26 07:29:33;;;;;;;;;4.00;2.75;;;;;23.54;47.47;99133.03;5035731;28;45430;-74
2023/10/26 07:31:59;;;;;;;;;4.50;1.50;;;;;23.40;47.20;99142.06;5016996;28;47055;-74
2023/10/26 07:34:25;;;;;;;;;3.00;2.25;;;;;23.36;46.98;99158.03;4994899;28;46167;-75
2023/10/26 07:36:50;;;;;;;;;3.00;3.00;;;;;23.35;47.41;99150.00;5021501;28;45400;-73
2023/10/26 07:39:15;;;;;;;;;3.00;1.00;;;;;23.48;47.15;99155.63;5007291;28;46943;-74
2023/10/26 07:41:42;;;;;;;;;4.00;3.00;;;;;23.62;46.58;99123.84;5020712;28;45493;-73
2023/10/26 07:44:08;;;;;;;;;2.25;1.00;;;;;23.73;45.62;99145.25;5017318;28;45359;-73
2023/10/26 07:46:33;;;;;;;;;3.75;2.00;;;;;23.31;46.45;99159.59;5017212;28;45420;-73
2023/10/26 07:48:58;;;;;;;;;2.50;1.50;;;;;23.50;46.79;99158.19;5017323;28;46507;-74
2023/10/26 07:51:24;;;;;;;;;2.00;2.00;;;;;23.42;46.38;99170.06;5017522;28;46774;-74
2023/10/26 07:53:50;;;;;;;;;3.00;2.00;;;;;23.41;46.27;99193.00;5018693;28;45357;-74
2023/10/26 07:56:16;;;;;;;;;1.00;1.00;;;;;23.27;46.96;99170.09;5017144;28;45439;-73
2023/10/26 07:58:41;;;;;;;;;5.00;1.50;;;;;23.34;46.67;99159.25;5034930;28;45330;-73
2023/10/26 08:01:10;;;;;;;;;2.00;1.00;;;;;23.36;46.96;99179.03;5016782;28;47248;-73
2023/10/26 08:03:35;;;;;;;;;2.50;0.00;;;;;23.36;46.47;99187.25;5017161;28;45320;-73
2023/10/26 08:06:02;;;;;;;;;2.75;2.00;;;;;23.38;46.23;99186.03;5011117;28;45395;-73
2023/10/26 08:08:28;;;;;;;;;2.00;0.25;;;;;23.36;46.48;99163.50;5013539;28;46969;-73
2023/10/26 08:10:53;;;;;;;;;2.50;1.25;;;;;23.41;46.28;99182.03;5000870;28;46937;-73
2023/10/26 08:13:19;;;;;;;;;3.00;1.50;;;;;23.57;45.77;99190.06;5038717;28;45321;-73
2023/10/26 08:15:44;;;;;;;;;3.00;3.00;;;;;23.50;45.97;99196.50;5017003;28;45666;-75
2023/10/26 08:18:11;;;;;;;;;4.00;1.25;;;;;23.64;45.55;99209.34;5007154;28;47621;-77
2023/10/26 08:20:37;;;;;;;;;4.00;2.00;;;;;23.54;45.48;99211.50;5018256;28;45487;-75
2023/10/26 08:23:03;;;;;;;;;3.25;2.00;;;;;23.66;45.11;99221.75;5034773;28;45266;-75
2023/10/26 08:25:28;;;;;;;;;2.75;1.25;;;;;23.63;45.65;99205.75;5034737;28;45357;-75
2023/10/26 08:27:54;;;;;;;;;3.00;1.50;;;;;23.51;45.75;99207.25;5035149;28;45479;-75
2023/10/26 08:30:20;;;;;;;;;2.75;2.75;;;;;23.66;45.51;99205.34;5024279;28;45919;-75
2023/10/26 08:32:48;;;;;;;;;3.00;2.00;;;;;23.53;45.03;99213.41;5032935;28;45459;-74
2023/10/26 08:35:13;;;;;;;;;2.00;2.00;;;;;23.61;45.37;99201.50;5034859;28;45351;-72
2023/10/26 08:37:40;;;;;;;;;4.00;1.00;;;;;23.76;45.51;99208.63;5019180;28;46538;-72
2023/10/26 08:40:11;;;;;;;;;4.25;2.00;;;;;23.65;45.35;99211.00;5018748;28;46799;-73
2023/10/26 08:42:38;;;;;;;;;2.00;2.00;;;;;23.47;45.26;99213.28;5016749;28;45441;-72
2023/10/26 08:45:19;;;;;;;;;4.25;1.25;;;;;23.56;45.62;99209.44;5034948;28;45347;-73
2023/10/26 08:47:47;;;;;;;;;1.25;1.00;;;;;23.45;45.82;99223.56;5016227;28;46016;-74
2023/10/26 08:50:14;;;;;;;;;3.25;1.25;;;;;23.29;46.22;99221.88;5016421;28;46137;-74
2023/10/26 08:52:41;;;;;;;;;3.00;1.00;;;;;23.40;46.10;99224.09;5016378;28;46424;-79
2023/10/26 08:55:07;;;;;;;;;1.00;1.00;;;;;23.39;46.28;99227.91;5016443;28;45402;-74
2023/10/26 08:57:32;;;;;;;;;1.50;1.50;;;;;23.33;46.48;99225.91;5016466;28;47616;-74
2023/10/26 08:59:57;;;;;;;;;3.00;1.25;;;;;23.26;46.41;99225.81;5016038;28;46321;-74
2023/10/26 09:02:23;;;;;;;;;1.00;1.00;;;;;23.53;45.64;99242.63;5034650;28;45466;-73
2023/10/26 09:05:04;;;;;;;;;3.25;2.00;;;;;23.57;46.37;99246.66;5016543;28;45442;-73
2023/10/26 09:07:30;;;;;;;;;5.25;2.25;;;;;23.67;45.74;99244.50;5034117;28;45494;-74
2023/10/26 09:09:55;;;;;;;;;3.25;2.25;;;;;23.60;45.60;99247.16;5016220;28;47052;-74
2023/10/26 09:12:21;;;;;;;;;3.00;2.25;;;;;23.50;46.27;99237.53;5016175;28;45395;-73
2023/10/26 09:15:06;;;;;;;;;4.00;2.25;;;;;23.42;46.60;99243.91;5016555;28;45403;-72
2023/10/26 09:17:32;;;;;;;;;2.00;2.00;;;;;23.54;46.21;99239.72;5016598;28;45616;-74
2023/10/26 09:20:15;;;;;;;;;2.50;2.00;;;;;23.74;45.76;99232.59;5016295;28;46297;-73
2023/10/26 09:22:42;;;;;;;;;4.00;2.75;;;;;23.67;45.66;99239.03;5035301;28;45387;-75
2023/10/26 09:25:12;;;;;;;;;5.25;3.00;;;;;23.60;46.02;99235.34;5034337;28;45397;-74
2023/10/26 09:27:38;;;;;;;;;5.50;2.50;;;;;23.63;45.56;99255.00;5016164;28;46373;-75
2023/10/26 09:30:05;;;;;;;;;2.50;2.25;;;;;23.61;45.92;99251.59;5015410;28;46275;-74
2023/10/26 09:32:35;;;;;;;;;5.25;2.00;;;;;23.43;46.43;99259.31;5015394;28;45341;-74
2023/10/26 09:35:01;;;;;;;;;4.00;1.75;;;;;23.55;45.56;99259.72;5015289;28;45478;-75
2023/10/26 09:37:27;;;;;;;;;5.00;2.00;;;;;23.72;45.72;99236.59;5015775;28;47104;-74
2023/10/26 09:39:53;;;;;;;;;3.50;1.00;;;;;23.90;45.16;99255.34;5015480;28;47507;-74
2023/10/26 09:42:19;;;;;;;;;3.00;1.00;;;;;23.98;44.93;99266.19;5034049;28;45436;-73
2023/10/26 09:44:46;;;;;;;;;4.00;2.25;;;;;23.79;44.81;99272.25;5016643;28;45367;-73
2023/10/26 09:47:13;;;;;;;;;2.75;2.75;;;;;23.77;44.83;99267.81;5014026;28;45398;-75
2023/10/26 09:49:38;;;;;;;;;3.75;3.75;;;;;23.72;45.33;99270.28;5031569;28;45553;-76
2023/10/26 09:52:05;;;;;;;;;4.00;2.00;;;;;23.65;45.31;99276.66;5034781;28;45695;-73
2023/10/26 09:54:36;;;;;;;;;3.50;1.75;;;;;23.56;45.70;99261.41;5037521;28;45470;-74
2023/10/26 09:57:26;;;;;;;;;3.50;2.00;;;;;23.54;45.29;99253.41;5002675;28;46251;-74
2023/10/26 09:59:53;;;;;;;;;3.00;3.00;;;;;23.78;44.70;99244.03;5015780;28;47228;-71
2023/10/26 10:02:19;;;;;;;;;2.50;2.25;;;;;23.69;44.97;99239.69;5036812;28;45407;-72
2023/10/26 10:04:46;;;;;;;;;7.00;3.00;;;;;23.86;44.88;99230.22;5019030;28;45400;-74
2023/10/26 10:07:41;;;;;;;;;5.00;2.00;;;;;23.88;44.63;99224.56;5036819;28;45457;-73
2023/10/26 10:10:06;;;;;;;;;4.25;2.75;;;;;23.91;44.45;99215.94;5028286;28;46377;-74
2023/10/26 10:12:33;;;;;;;;;3.50;2.25;;;;;23.87;44.89;99226.44;5036485;28;45363;-73
2023/10/26 10:15:01;;;;;;;;;5.50;2.75;;;;;23.99;44.10;99219.41;5037324;28;45494;-74
2023/10/26 10:17:46;;;;;;;;;2.50;2.25;;;;;24.27;43.95;99233.25;5036611;28;45547;-72
2023/10/26 10:20:33;;;;;;;;;3.50;2.00;;;;;24.13;43.78;99220.44;5008271;28;47535;-73
2023/10/26 10:23:00;;;;;;;;;1.25;0.50;;;;;24.07;43.67;99229.44;5018864;28;45429;-76
2023/10/26 10:25:50;;;;;;;;;3.75;3.75;;;;;24.21;43.69;99233.19;5036876;28;45457;-75
2023/10/26 10:28:17;;;;;;;;;3.50;2.25;;;;;24.27;43.82;99249.69;5036288;28;45458;-74
2023/10/26 10:30:57;;;;;;;;;4.50;3.75;;;;;24.20;43.94;99229.56;5036370;28;45383;-74
2023/10/26 10:33:27;;;;;;;;;5.50;4.00;;;;;24.29;43.62;99239.38;5022236;28;45463;-72
2023/10/26 10:36:01;;;;;;;;;5.25;3.00;;;;;24.19;43.57;99252.50;5026032;28;45526;-74
2023/10/26 10:38:28;;;;;;;;;8.00;3.25;;;;;24.10;43.65;99240.81;5036247;28;45608;-73
2023/10/26 10:40:53;;;;;;;;;9.50;5.50;;;;;24.26;43.67;99247.97;5024710;28;46335;-75
2023/10/26 10:43:32;;;;;;;;;4.25;3.00;;;;;24.39;43.25;99252.75;5033320;28;45494;-72
2023/10/26 10:46:18;;;;;;;;;2.00;2.00;;;;;24.27;43.08;99278.94;5036668;28;45368;-74
2023/10/26 10:49:06;;;;;;;;;7.25;4.75;;;;;24.40;43.26;99257.19;5036219;28;45375;-74
2023/10/26 10:51:42;;;;;;;;;6.25;4.00;;;;;24.56;42.73;99256.09;5036147;28;46197;-74
2023/10/26 10:54:12;;;;;;;;;3.50;3.50;;;;;24.82;41.83;99248.09;5018484;28;45456;-72
2023/10/26 10:56:43;;;;;;;;;7.00;3.75;;;;;24.66;42.21;99226.47;5030524;28;45316;-73
2023/10/26 10:59:34;;;;;;;;;3.75;3.00;;;;;25.04;41.93;99252.53;5036117;28;45366;-72
2023/10/26 11:02:10;;;;;;;;;4.50;3.00;;;;;24.98;41.58;99244.25;5032073;28;46026;-73
2023/10/26 11:04:52;;;;;;;;;2.50;2.50;;;;;25.18;41.54;99251.56;5035270;28;45493;-73
2023/10/26 11:07:25;;;;;;;;;5.00;1.00;;;;;24.97;41.29;99237.91;5036120;28;45408;-74
2023/10/26 11:09:55;;;;;;;;;4.25;4.00;;;;;25.29;41.47;99241.94;5036132;28;45649;-74
2023/10/26 11:12:20;;;;;;;;;4.25;2.75;;;;;25.00;41.69;99244.91;5034819;28;45356;-72
2023/10/26 11:14:51;;;;;;;;;5.50;2.50;;;;;25.07;41.48;99241.16;5035451;28;45331;-74
2023/10/26 11:17:18;;;;;;;;;7.50;4.75;;;;;25.18;41.82;99239.75;5025227;28;45467;-74
2023/10/26 11:19:43;;;;;;;;;7.00;5.25;;;;;25.24;40.92;99248.03;5017850;28;45942;-73
2023/10/26 11:22:09;;;;;;;;;4.50;3.00;;;;;24.89;41.50;99238.88;5035226;28;46308;-74
2023/10/26 11:24:35;;;;;;;;;4.00;2.00;;;;;24.80;41.77;99239.22;5036134;28;45393;-75
2023/10/26 11:27:14;;;;;;;;;3.25;2.00;;;;;24.49;42.15;99232.22;5036071;28;45569;-73
2023/10/26 11:29:40;;;;;;;;;2.75;2.50;;;;;24.86;42.23;99231.06;5036076;28;45338;-74
2023/10/26 11:32:20;;;;;;;;;4.00;2.00;;;;;25.05;41.97;99225.94;5034623;28;46170;-73
2023/10/26 11:35:05;;;;;;;;;3.00;2.00;;;;;25.37;41.12;99235.44;5015364;28;45373;-73
2023/10/26 11:37:32;;;;;;;;;3.00;1.00;;;;;25.11;40.84;99242.44;5004158;28;45482;-74
2023/10/26 11:39:58;;;;;;;;;3.75;2.75;;;;;25.50;41.18;99233.63;5019938;28;45249;-73
2023/10/26 11:42:46;;;;;;;;;5.75;2.25;;;;;25.09;41.03;99213.56;5026105;28;45518;-74
2023/10/26 11:45:15;;;;;;;;;3.25;2.00;;;;;24.97;41.14;99210.50;5021767;28;45351;-82
2023/10/26 11:47:54;;;;;;;;;2.50;2.50;;;;;25.23;40.69;99205.19;5018074;28;45431;-81
2023/10/26 11:50:22;;;;;;;;;3.25;2.00;;;;;25.52;40.80;99197.75;5017516;28;45546;-79
2023/10/26 11:52:48;;;;;;;;;8.50;3.00;;;;;25.70;40.19;99195.31;5001942;28;46844;-79
2023/10/26 11:55:14;;;;;;;;;2.00;1.00;;;;;25.37;40.61;99186.91;5021398;28;45347;-77
2023/10/26 11:57:42;;;;;;;;;3.00;1.75;;;;;25.47;40.39;99195.63;5022720;28;45933;-76
2023/10/26 12:00:09;;;;;;;;;2.50;1.00;;;;;25.39;40.21;99183.97;5016284;28;45704;-78
2023/10/26 12:02:34;;;;;;;;;4.50;3.00;;;;;25.33;40.95;99188.38;5027504;28;45456;-76
2023/10/26 12:05:01;;;;;;;;;2.00;2.00;;;;;25.31;41.07;99195.94;5021740;28;45527;-77
2023/10/26 12:07:26;;;;;;;;;5.75;2.75;;;;;25.56;40.78;99174.34;5007562;28;45891;-77
2023/10/26 12:09:51;;;;;;;;;3.75;2.50;;;;;25.61;40.20;99164.47;5032567;28;45570;-77
2023/10/26 12:12:17;;;;;;;;;4.25;1.00;;;;;25.54;40.47;99170.94;5011733;28;47968;-75
2023/10/26 12:14:43;;;;;;;;;2.50;1.00;;;;;25.41;40.81;99162.66;5001063;28;46511;-78
2023/10/26 12:17:09;;;;;;;;;2.75;1.00;;;;;25.61;40.93;99174.59;5002736;28;45840;-77
2023/10/26 12:19:34;;;;;;;;;2.00;1.00;;;;;25.73;40.22;99174.84;4999188;28;46144;-78
2023/10/26 12:21:59;;;;;;;;;2.75;2.50;;;;;25.96;40.09;99159.72;5001610;28;47475;-79
2023/10/26 12:24:25;;;;;;;;;1.00;1.00;;;;;26.15;39.96;99168.22;5002063;28;45307;-79
2023/10/26 12:27:00;;;;;;;;;2.75;2.75;;;;;26.08;39.29;99161.84;4999179;28;45361;-77
2023/10/26 12:29:26;;;;;;;;;5.50;2.00;;;;;25.87;40.08;99165.59;5015745;28;45313;-76
2023/10/26 12:31:53;;;;;;;;;3.50;2.00;;;;;26.18;40.16;99154.91;5015443;28;45475;-77
2023/10/26 12:34:19;;;;;;;;;6.00;2.50;;;;;25.72;40.09;99164.91;5027151;28;45666;-77
2023/10/26 12:36:46;;;;;;;;;9.50;3.00;;;;;25.64;40.36;99144.00;5010729;28;45609;-76
2023/10/26 12:39:25;;;;;;;;;3.00;1.75;;;;;25.30;40.93;99158.59;5025621;28;45417;-77
2023/10/26 12:42:10;;;;;;;;;4.00;2.00;;;;;25.54;40.53;99154.47;5026711;28;46065;-76
2023/10/26 12:44:38;;;;;;;;;6.25;2.25;;;;;25.69;40.61;99141.47;5007951;28;45379;-75
2023/10/26 12:47:04;;;;;;;;;3.00;1.75;;;;;26.06;40.16;99150.22;5021061;28;45613;-76
2023/10/26 12:49:31;;;;;;;;;2.00;1.00;;;;;26.05;40.24;99141.13;5023282;28;45537;-75
2023/10/26 12:51:57;;;;;;;;;3.50;3.50;;;;;25.76;40.07;99160.72;5029221;28;46134;-76
2023/10/26 12:54:23;;;;;;;;;3.00;1.50;;;;;25.61;40.50;99150.72;5012176;28;45365;-75
2023/10/26 12:56:50;;;;;;;;;3.00;3.00;;;;;25.67;39.96;99143.59;5007299;28;45258;-76
2023/10/26 12:59:16;;;;;;;;;4.00;1.25;;;;;25.68;40.92;99138.94;5007476;28;45496;-76
2023/10/26 13:01:42;;;;;;;;;4.00;2.25;;;;;25.50;40.94;99136.75;5006266;28;45627;-76
2023/10/26 13:04:08;;;;;;;;;4.50;2.50;;;;;25.17;41.27;99128.38;5001047;28;45417;-76
2023/10/26 13:06:34;;;;;;;;;3.25;2.25;;;;;25.40;41.04;99139.88;5007137;28;45606;-73
2023/10/26 13:09:01;;;;;;;;;4.00;3.00;;;;;25.62;40.91;99130.47;5025017;28;45346;-74
2023/10/26 13:11:28;;;;;;;;;3.25;3.00;;;;;25.42;40.70;99126.78;5022882;28;45513;-75
2023/10/26 13:13:53;;;;;;;;;3.00;1.00;;;;;25.21;41.37;99133.22;5021567;28;45452;-74
2023/10/26 13:16:19;;;;;;;;;3.00;1.50;;;;;25.19;41.38;99124.34;5019610;28;45308;-74
2023/10/26 13:18:44;;;;;;;;;4.75;3.00;;;;;25.23;41.19;99114.69;5021860;28;45360;-74
2023/10/26 13:21:10;;;;;;;;;3.50;3.00;;;;;25.35;41.31;99103.94;5019868;28;45839;-74
2023/10/26 13:23:35;;;;;;;;;4.25;2.50;;;;;25.53;41.01;99103.38;5023251;28;45695;-73
2023/10/26 13:26:01;;;;;;;;;3.50;2.75;;;;;25.48;41.47;99100.41;5007661;28;45501;-72
2023/10/26 13:28:26;;;;;;;;;6.50;4.75;;;;;25.42;41.03;99082.03;4997474;28;45380;-74
2023/10/26 13:30:52;;;;;;;;;2.75;2.00;;;;;25.48;40.83;99090.28;5013536;28;45420;-74
2023/10/26 13:33:17;;;;;;;;;6.00;3.00;;;;;25.50;41.54;99093.69;4995262;28;45450;-74
2023/10/26 13:35:44;;;;;;;;;4.25;4.00;;;;;25.40;41.32;99086.88;5012982;28;45339;-72
2023/10/26 13:38:12;;;;;;;;;3.50;3.50;;;;;25.42;41.27;99079.31;4995434;28;45455;-75
2023/10/26 13:40:39;;;;;;;;;2.25;1.00;;;;;25.27;41.41;99083.03;5013113;28;45494;-72
2023/10/26 13:43:04;;;;;;;;;7.50;2.75;;;;;25.29;41.29;99073.75;5012806;28;45379;-72
2023/10/26 13:45:31;;;;;;;;;4.50;2.25;;;;;25.37;41.32;99079.06;5013350;28;45308;-73
2023/10/26 13:47:59;;;;;;;;;3.00;3.00;;;;;25.34;41.46;99076.75;4995322;28;45282;-74
2023/10/26 13:50:25;;;;;;;;;3.75;2.00;;;;;25.44;41.87;99078.03;4995587;28;47690;-75
2023/10/26 13:52:50;;;;;;;;;4.75;3.25;;;;;25.46;41.63;99072.34;5013669;28;45312;-73
2023/10/26 13:55:16;;;;;;;;;5.00;3.00;;;;;25.42;41.57;99076.56;5013616;28;45394;-74
2023/10/26 13:57:42;;;;;;;;;3.00;3.00;;;;;25.62;41.28;99071.97;4995305;28;47392;-73
2023/10/26 14:00:08;;;;;;;;;4.75;2.25;;;;;25.63;41.59;99087.41;5011698;28;46865;-73
2023/10/26 14:02:34;;;;;;;;;5.00;2.00;;;;;25.58;41.45;99070.69;5012724;28;45336;-78
2023/10/26 14:04:59;;;;;;;;;4.00;2.75;;;;;25.68;41.62;99064.84;4988215;28;45443;-75
2023/10/26 14:07:25;;;;;;;;;2.50;2.50;;;;;25.55;41.45;99058.22;5008152;28;45499;-75
2023/10/26 14:09:52;;;;;;;;;2.50;2.50;;;;;25.74;41.52;99053.88;4994525;28;48156;-74
2023/10/26 14:12:17;;;;;;;;;3.25;2.00;;;;;25.87;41.73;99042.03;4995279;28;45524;-74
2023/10/26 14:14:44;;;;;;;;;2.00;2.00;;;;;25.89;41.22;99042.69;5013190;28;45477;-75
2023/10/26 14:17:10;;;;;;;;;4.75;3.00;;;;;25.90;41.42;99061.69;5012966;28;45324;-75
2023/10/26 14:19:35;;;;;;;;;2.00;2.00;;;;;25.72;41.56;99055.97;4995335;28;45469;-74
2023/10/26 14:22:00;;;;;;;;;2.00;2.00;;;;;25.62;41.56;99052.78;4994370;28;46101;-74
2023/10/26 14:24:29;;;;;;;;;8.00;3.75;;;;;25.66;41.58;99043.09;5013313;28;45424;-74
2023/10/26 14:26:54;;;;;;;;;2.00;2.00;;;;;25.61;42.07;99043.69;4993754;28;46120;-77
2023/10/26 14:29:19;;;;;;;;;4.75;3.00;;;;;25.32;42.86;99038.53;5005124;28;46055;-75
2023/10/26 14:31:45;;;;;;;;;7.00;2.25;;;;;25.34;42.27;99054.78;5021912;28;45443;-74
2023/10/26 14:34:10;;;;;;;;;4.00;2.25;;;;;24.99;42.75;99046.63;5030241;28;45376;-75
2023/10/26 14:36:35;;;;;;;;;6.25;2.50;;;;;25.07;42.58;99062.91;5033019;28;45456;-74
2023/10/26 14:39:01;;;;;;;;;4.50;2.25;;;;;25.00;43.23;99051.09;5014678;28;46247;-74
2023/10/26 14:41:26;;;;;;;;;4.00;2.00;;;;;24.89;43.71;99055.22;5034730;28;45485;-75
2023/10/26 14:43:53;;;;;;;;;4.00;4.00;;;;;24.79;43.84;99037.44;5034500;28;45571;-76
2023/10/26 14:46:19;;;;;;;;;5.00;2.00;;;;;25.02;43.61;99035.25;5033938;28;45429;-76
2023/10/26 14:48:44;;;;;;;;;3.00;2.50;;;;;25.09;43.24;99033.41;5033951;28;56753;-75
2023/10/26 14:51:09;;;;;;;;;3.00;1.00;;;;;25.12;43.31;99022.00;5034776;28;48174;-74
2023/10/26 14:53:34;;;;;;;;;3.50;2.50;;;;;25.18;43.71;99034.03;5036033;28;45352;-75
2023/10/26 14:56:01;;;;;;;;;3.50;2.00;;;;;25.17;43.16;99027.72;5036014;28;52146;-74
2023/10/26 14:58:27;;;;;;;;;6.00;2.00;;;;;25.17;43.80;99024.16;5036191;28;45457;-76
2023/10/26 15:00:52;;;;;;;;;3.75;2.00;;;;;25.05;43.57;99001.94;5035080;28;45371;-74
2023/10/26 15:03:17;;;;;;;;;2.50;2.25;;;;;25.13;43.00;99014.63;5035081;28;46922;-74
2023/10/26 15:05:43;;;;;;;;;3.50;3.50;;;;;25.14;43.40;99008.94;5035091;28;45559;-76
2023/10/26 15:08:08;;;;;;;;;4.50;3.00;;;;;25.08;43.26;99007.03;5034940;28;46100;-75
2023/10/26 15:10:34;;;;;;;;;4.00;3.00;;;;;24.92;43.90;99001.91;5035293;28;45426;-76
2023/10/26 15:13:00;;;;;;;;;4.00;2.50;;;;;24.83;44.08;98997.63;5036089;28;45190;-75
2023/10/26 15:15:25;;;;;;;;;6.25;2.00;;;;;24.83;44.00;98995.72;5035311;28;49953;-76
2023/10/26 15:17:51;;;;;;;;;7.25;1.00;;;;;24.76;44.18;99002.19;5016800;28;46157;-75
2023/10/26 15:20:17;;;;;;;;;3.00;2.25;;;;;24.71;44.64;98983.63;5033454;28;45317;-74
2023/10/26 15:22:43;;;;;;;;;2.25;2.25;;;;;24.62;44.69;98984.00;5044593;28;45415;-73
2023/10/26 15:25:08;;;;;;;;;1.25;1.00;;;;;24.50;44.57;98962.66;5046211;28;45257;-72
2023/10/26 15:27:34;;;;;;;;;3.75;3.00;;;;;24.63;44.63;98983.81;5043145;28;46162;-74
2023/10/26 15:29:59;;;;;;;;;3.50;1.25;;;;;24.67;44.34;98979.59;5033938;28;45654;-74
2023/10/26 15:32:25;;;;;;;;;3.75;2.50;;;;;24.70;44.39;98965.50;5034292;28;45484;-76
2023/10/26 15:34:50;;;;;;;;;3.25;2.00;;;;;24.75;43.89;98957.50;5036954;28;45527;-73
2023/10/26 15:37:18;;;;;;;;;3.25;2.50;;;;;24.73;44.43;98956.88;5045208;28;45512;-73
2023/10/26 15:39:44;;;;;;;;;5.00;3.50;;;;;24.77;44.43;98963.63;5043588;28;45514;-72
2023/10/26 15:42:12;;;;;;;;;3.25;2.75;;;;;24.86;44.43;98956.91;5052913;28;45347;-74
2023/10/26 15:44:38;;;;;;;;;4.75;2.75;;;;;24.91;44.13;98958.22;5025971;28;46959;-74
2023/10/26 15:47:04;;;;;;;;;10.25;2.00;;;;;24.87;44.58;98958.59;5028423;28;45301;-72
2023/10/26 15:49:30;;;;;;;;;2.25;2.25;;;;;24.91;44.42;98942.63;5046105;28;45383;-72
2023/10/26 15:51:55;;;;;;;;;8.25;3.25;;;;;24.96;43.91;98955.72;5042638;28;45324;-73
2023/10/26 15:54:22;;;;;;;;;2.75;2.75;;;;;24.92;44.16;98944.34;5045587;28;45447;-71
2023/10/26 15:56:47;;;;;;;;;5.50;4.50;;;;;24.94;44.23;98949.59;5045062;28;46371;-73
2023/10/26 15:59:15;;;;;;;;;6.50;3.50;;;;;24.80;44.45;98940.44;5036177;28;45458;-74
2023/10/26 16:01:42;;;;;;;;;8.25;5.75;;;;;24.93;44.29;98948.72;5035142;28;45492;-73
2023/10/26 16:04:07;;;;;;;;;4.00;3.50;;;;;24.98;44.29;98935.28;5014059;28;45497;-73
2023/10/26 16:06:33;;;;;;;;;10.00;6.00;;;;;25.01;44.11;98932.09;5035112;28;45558;-74